createdAt,value
2019-03-08T00:02:07.351Z,9.70
2019-03-08T00:04:37.875Z,9.70
2019-03-08T00:07:08.203Z,9.60
2019-03-08T00:09:38.414Z,9.70
2019-03-08T00:12:08.746Z,9.60
2019-03-08T00:14:39.098Z,9.80
2019-03-08T00:17:09.394Z,9.50
2019-03-08T00:19:40.032Z,9.70
2019-03-08T00:22:10.484Z,9.60
2019-03-08T00:24:40.974Z,9.50
2019-03-08T00:27:11.497Z,9.60
2019-03-08T00:29:41.830Z,9.60
2019-03-08T00:32:12.434Z,9.60
2019-03-08T00:34:43.614Z,9.60
2019-03-08T00:37:13.942Z,9.60
2019-03-08T00:39:44.213Z,9.50
2019-03-08T00:42:14.775Z,9.40
2019-03-08T00:44:45.134Z,9.40
2019-03-08T00:47:15.531Z,9.40
2019-03-08T00:49:45.858Z,9.40
2019-03-08T00:52:16.238Z,9.40
2019-03-08T00:54:46.464Z,9.30
2019-03-08T00:57:16.728Z,9.30
2019-03-08T00:59:47.288Z,9.40
2019-03-08T01:02:17.934Z,9.40
2019-03-08T01:04:48.274Z,9.30
2019-03-08T01:07:18.587Z,9.50
2019-03-08T01:09:49.304Z,9.40
2019-03-08T01:12:19.502Z,9.60
2019-03-08T01:14:49.820Z,9.50
2019-03-08T01:17:20.240Z,9.50
2019-03-08T01:19:50.518Z,9.60
2019-03-08T01:22:21.460Z,9.60
2019-03-08T01:24:51.780Z,9.60
2019-03-08T01:27:22.323Z,9.60
2019-03-08T01:29:52.658Z,9.40
2019-03-08T01:32:22.993Z,9.40
2019-03-08T01:34:53.449Z,9.30
2019-03-08T01:37:23.746Z,9.50
2019-03-08T01:39:53.981Z,9.50
2019-03-08T01:42:24.428Z,9.50
2019-03-08T01:44:55.034Z,9.40
2019-03-08T01:47:25.553Z,9.40
2019-03-08T01:49:56.068Z,9.40
2019-03-08T01:52:45.555Z,9.30
2019-03-08T01:55:15.878Z,9.40
2019-03-08T01:57:46.294Z,9.20
2019-03-08T02:00:19.016Z,9.10
2019-03-08T02:02:49.473Z,9.20
2019-03-08T02:05:21.074Z,9.20
2019-03-08T02:07:51.451Z,9.10
2019-03-08T02:10:21.795Z,8.90
2019-03-08T02:12:52.429Z,9.00
2019-03-08T02:15:22.973Z,9.10
2019-03-08T02:17:53.528Z,9.10
2019-03-08T02:20:24.369Z,9.00
2019-03-08T02:22:54.719Z,9.00
2019-03-08T02:25:25.503Z,9.00
2019-03-08T02:27:55.974Z,9.00
2019-03-08T02:30:26.593Z,9.20
2019-03-08T02:32:57.126Z,9.00
2019-03-08T02:35:27.751Z,9.00
2019-03-08T02:37:58.335Z,9.00
2019-03-08T02:40:36.970Z,9.00
2019-03-08T02:43:10.364Z,9.00
2019-03-08T02:45:40.791Z,9.00
2019-03-08T02:48:11.426Z,9.10
2019-03-08T02:50:43.042Z,9.10
2019-03-08T02:53:13.338Z,9.00
2019-03-08T02:55:44.022Z,9.10
2019-03-08T02:58:14.291Z,8.70
2019-03-08T03:00:48.118Z,8.90
2019-03-08T03:03:19.111Z,8.90
2019-03-08T03:05:49.787Z,8.80
2019-03-08T03:08:20.397Z,8.80
2019-03-08T03:10:50.738Z,8.80
2019-03-08T03:13:20.939Z,8.70
2019-03-08T03:15:52.025Z,8.80
2019-03-08T03:18:22.556Z,8.90
2019-03-08T03:20:52.851Z,9.00
2019-03-08T03:23:23.016Z,8.90
2019-03-08T03:25:53.301Z,9.00
2019-03-08T03:28:23.683Z,9.00
2019-03-08T03:30:53.979Z,8.80
2019-03-08T03:33:24.556Z,8.90
2019-03-08T03:35:54.907Z,8.90
2019-03-08T03:38:26.543Z,9.00
2019-03-08T03:40:57.020Z,8.90
2019-03-08T03:43:27.346Z,8.90
2019-03-08T03:45:57.688Z,8.90
2019-03-08T03:48:27.895Z,8.90
2019-03-08T03:50:58.918Z,8.90
2019-03-08T03:53:29.959Z,9.00
2019-03-08T03:56:00.684Z,9.00
2019-03-08T03:58:31.280Z,8.90
2019-03-08T04:01:18.176Z,8.90
2019-03-08T04:03:49.428Z,8.90
2019-03-08T04:06:20.390Z,8.90
2019-03-08T04:08:50.929Z,9.00
2019-03-08T04:11:21.230Z,8.90
2019-03-08T04:13:51.817Z,9.00
2019-03-08T04:16:22.148Z,9.00
2019-03-08T04:18:52.874Z,8.90
2019-03-08T04:21:23.451Z,9.00
2019-03-08T04:23:53.755Z,9.00
2019-03-08T04:26:24.473Z,8.90
2019-03-08T04:28:54.806Z,9.00
2019-03-08T04:31:26.004Z,8.90
2019-03-08T04:33:56.362Z,9.00
2019-03-08T04:36:26.655Z,8.90
2019-03-08T04:38:57.626Z,8.90
2019-03-08T04:41:28.199Z,9.20
2019-03-08T04:43:58.621Z,9.00
2019-03-08T04:46:28.866Z,8.90
2019-03-08T04:48:59.227Z,8.90
2019-03-08T04:51:29.563Z,8.90
2019-03-08T04:54:00.665Z,9.00
2019-03-08T04:56:31.298Z,8.90
2019-03-08T04:59:01.521Z,8.80
2019-03-08T05:01:32.037Z,8.80
2019-03-08T05:04:03.473Z,9.00
2019-03-08T05:06:33.998Z,9.00
2019-03-08T05:09:05.558Z,8.90
2019-03-08T05:11:35.801Z,9.00
2019-03-08T05:14:05.971Z,8.90
2019-03-08T05:16:36.274Z,8.80
2019-03-08T05:19:06.573Z,8.70
2019-03-08T05:21:37.859Z,8.80
2019-03-08T05:24:08.471Z,8.90
2019-03-08T05:26:38.714Z,8.80
2019-03-08T05:29:08.964Z,8.90
2019-03-08T05:31:39.626Z,8.90
2019-03-08T05:34:10.208Z,8.80
2019-03-08T05:36:40.871Z,8.80
2019-03-08T05:39:14.703Z,8.70
2019-03-08T05:41:45.080Z,8.50
2019-03-08T05:44:15.405Z,8.80
2019-03-08T05:46:46.222Z,8.70
2019-03-08T05:49:16.900Z,8.70
2019-03-08T05:51:47.187Z,8.80
2019-03-08T05:54:17.554Z,9.00
2019-03-08T05:56:47.854Z,8.70
2019-03-08T05:59:18.196Z,8.50
2019-03-08T06:01:48.453Z,8.60
2019-03-08T06:04:18.753Z,8.50
2019-03-08T06:06:49.100Z,8.50
2019-03-08T06:09:19.313Z,8.50
2019-03-08T06:11:49.897Z,8.50
2019-03-08T06:14:20.269Z,8.50
2019-03-08T06:16:51.208Z,8.10
2019-03-08T06:19:40.697Z,8.30
2019-03-08T06:22:11.340Z,8.40
2019-03-08T06:24:42.094Z,8.40
2019-03-08T06:27:12.860Z,8.30
2019-03-08T06:29:43.533Z,8.20
2019-03-08T06:32:14.123Z,8.40
2019-03-08T06:34:44.517Z,8.30
2019-03-08T06:37:15.178Z,8.20
2019-03-08T06:39:45.693Z,8.30
2019-03-08T06:42:15.871Z,8.20
2019-03-08T06:44:46.452Z,8.20
2019-03-08T06:47:16.996Z,8.10
2019-03-08T06:49:47.500Z,8.30
2019-03-08T06:52:17.822Z,8.40
2019-03-08T06:54:48.742Z,8.40
2019-03-08T06:57:20.522Z,8.30
2019-03-08T06:59:55.791Z,8.30
2019-03-08T07:02:26.532Z,8.20
2019-03-08T07:04:57.606Z,8.20
2019-03-08T07:07:27.914Z,8.40
2019-03-08T07:09:58.485Z,8.10
2019-03-08T07:12:28.834Z,8.10
2019-03-08T07:14:59.225Z,8.10
2019-03-08T07:17:29.914Z,8.30
2019-03-08T07:20:19.373Z,8.10
2019-03-08T07:23:00.618Z,8.00
2019-03-08T07:25:58.821Z,8.00
2019-03-08T07:28:51.252Z,7.60
2019-03-08T07:31:44.844Z,7.40
2019-03-08T07:34:43.302Z,7.40
2019-03-08T07:37:40.254Z,7.40
2019-03-08T07:40:33.016Z,7.20
2019-03-08T07:43:28.588Z,7.40
2019-03-08T07:46:17.296Z,7.30
2019-03-08T07:49:05.674Z,7.80
2019-03-08T07:51:54.888Z,7.90
2019-03-08T07:54:39.125Z,7.90
2019-03-08T07:57:20.411Z,7.90
2019-03-08T07:59:56.374Z,7.80
2019-03-08T08:02:36.609Z,7.90
2019-03-08T08:05:26.758Z,7.90
2019-03-08T08:08:11.790Z,8.20
2019-03-08T08:10:59.754Z,8.20
2019-03-08T08:13:36.455Z,8.50
2019-03-08T08:16:17.491Z,8.90
2019-03-08T08:18:55.941Z,9.00
2019-03-08T08:21:36.027Z,8.90
2019-03-08T08:24:18.154Z,8.90
2019-03-08T08:27:00.165Z,9.00
2019-03-08T08:29:55.386Z,9.10
2019-03-08T08:32:53.660Z,9.40
2019-03-08T08:35:46.047Z,9.50
2019-03-08T08:38:33.532Z,9.80
2019-03-08T08:41:19.139Z,9.90
2019-03-08T08:44:11.428Z,9.90
2019-03-08T08:47:11.095Z,9.90
2019-03-08T08:50:00.786Z,9.70
2019-03-08T08:52:46.780Z,9.80
2019-03-08T08:55:47.884Z,9.40
2019-03-08T08:58:36.906Z,9.60
2019-03-08T09:01:34.094Z,9.80
2019-03-08T09:04:26.428Z,10.00
2019-03-08T09:07:05.859Z,9.50
2019-03-08T09:09:55.168Z,9.50
2019-03-08T09:12:31.265Z,9.90
2019-03-08T09:15:23.453Z,9.60
2019-03-08T09:18:03.543Z,9.60
2019-03-08T09:20:50.818Z,9.50
2019-03-08T09:23:36.494Z,9.40
2019-03-08T09:26:14.287Z,9.20
2019-03-08T09:29:01.307Z,9.70
2019-03-08T09:31:38.276Z,9.70
2019-03-08T09:34:36.441Z,10.10
2019-03-08T09:37:18.751Z,10.00
2019-03-08T09:40:13.825Z,10.30
2019-03-08T09:43:05.510Z,10.10
2019-03-08T09:46:03.255Z,9.80
2019-03-08T09:48:48.596Z,9.70
2019-03-08T09:51:43.969Z,10.40
2019-03-08T09:54:24.034Z,10.50
2019-03-08T09:57:12.120Z,10.20
2019-03-08T09:59:52.739Z,8.80
2019-03-08T10:02:45.085Z,7.30
2019-03-08T10:05:40.150Z,6.70
2019-03-08T10:08:24.417Z,7.10
2019-03-08T10:11:07.047Z,7.30
2019-03-08T10:13:56.504Z,7.70
2019-03-08T10:16:48.604Z,8.10
2019-03-08T10:19:38.240Z,8.50
2019-03-08T10:22:42.827Z,8.90
2019-03-08T10:25:32.240Z,8.90
2019-03-08T10:28:21.627Z,9.00
2019-03-08T10:31:10.890Z,9.20
2019-03-08T10:33:59.060Z,9.40
2019-03-08T10:36:48.195Z,9.30
2019-03-08T10:39:40.947Z,9.10
2019-03-08T10:42:30.326Z,9.30
2019-03-08T10:45:06.842Z,9.50
2019-03-08T10:47:44.609Z,9.50
2019-03-08T10:50:24.271Z,9.60
2019-03-08T10:53:01.258Z,10.20
2019-03-08T10:55:38.120Z,9.80
2019-03-08T10:58:28.203Z,10.00
2019-03-08T11:01:04.737Z,10.20
2019-03-08T11:03:57.037Z,9.90
2019-03-08T11:06:45.070Z,10.20
2019-03-08T11:09:40.228Z,10.10
2019-03-08T11:12:28.194Z,9.90
2019-03-08T11:15:05.328Z,10.10
2019-03-08T11:18:01.049Z,10.00
2019-03-08T11:20:53.695Z,9.70
2019-03-08T11:23:34.667Z,10.10
2019-03-08T11:26:24.952Z,10.10
2019-03-08T11:29:13.623Z,10.10
2019-03-08T11:32:22.988Z,10.40
2019-03-08T11:35:11.936Z,10.00
2019-03-08T11:37:46.942Z,10.50
2019-03-08T11:40:35.126Z,10.90
2019-03-08T11:43:22.971Z,11.20
2019-03-08T11:46:05.044Z,11.20
2019-03-08T11:48:53.188Z,10.90
2019-03-08T11:51:51.408Z,10.40
2019-03-08T11:54:41.208Z,10.30
2019-03-08T11:57:28.953Z,10.00
2019-03-08T12:00:24.661Z,10.10
2019-03-08T12:03:15.146Z,9.10
2019-03-08T12:06:03.716Z,8.80
2019-03-08T12:08:52.928Z,9.00
2019-03-08T12:11:57.424Z,8.50
2019-03-08T12:14:33.848Z,8.50
2019-03-08T12:17:27.476Z,8.60
2019-03-08T12:20:02.800Z,8.60
2019-03-08T12:22:51.949Z,8.80
2019-03-08T12:25:43.286Z,9.10
2019-03-08T12:28:34.068Z,9.60
2019-03-08T12:31:23.510Z,10.00
2019-03-08T12:34:12.010Z,9.80
2019-03-08T12:37:00.161Z,10.10
2019-03-08T12:39:39.056Z,10.00
2019-03-08T12:42:29.331Z,10.20
2019-03-08T12:45:09.118Z,10.60
2019-03-08T12:47:46.053Z,10.60
2019-03-08T12:50:31.821Z,10.40
2019-03-08T12:53:12.661Z,10.60
2019-03-08T12:56:04.160Z,10.80
2019-03-08T12:58:51.215Z,10.90
2019-03-08T13:01:43.439Z,10.90
2019-03-08T13:04:23.397Z,10.80
2019-03-08T13:07:19.568Z,10.70
2019-03-08T13:09:50.190Z,10.80
2019-03-08T13:12:20.715Z,11.10
2019-03-08T13:14:51.246Z,11.20
2019-03-08T13:17:21.655Z,11.30
2019-03-08T13:19:51.861Z,11.40
2019-03-08T13:22:22.430Z,11.00
2019-03-08T13:24:53.034Z,10.80
2019-03-08T13:27:23.314Z,11.00
2019-03-08T13:29:54.084Z,11.20
2019-03-08T13:32:24.556Z,11.00
2019-03-08T13:34:54.829Z,10.80
2019-03-08T13:37:25.359Z,10.80
2019-03-08T13:39:55.954Z,11.00
2019-03-08T13:42:26.313Z,11.20
2019-03-08T13:44:56.482Z,11.00
2019-03-08T13:47:27.065Z,11.10
2019-03-08T13:49:57.629Z,11.40
2019-03-08T13:52:28.137Z,11.70
2019-03-08T13:54:58.415Z,11.50
2019-03-08T13:57:28.603Z,11.60
2019-03-08T13:59:58.854Z,11.40
2019-03-08T14:02:29.367Z,11.30
2019-03-08T14:04:59.937Z,10.90
2019-03-08T14:07:30.791Z,9.80
2019-03-08T14:10:01.180Z,8.90
2019-03-08T14:12:31.811Z,8.90
2019-03-08T14:15:03.642Z,9.60
2019-03-08T14:17:34.162Z,9.90
2019-03-08T14:20:05.052Z,9.90
2019-03-08T14:22:35.334Z,9.70
2019-03-08T14:25:05.969Z,10.00
2019-03-08T14:27:36.156Z,10.20
2019-03-08T14:30:07.101Z,10.20
2019-03-08T14:32:37.402Z,10.50
2019-03-08T14:35:07.805Z,10.60
2019-03-08T14:37:37.993Z,10.60
2019-03-08T14:40:25.646Z,11.00
2019-03-08T14:43:05.240Z,11.40
2019-03-08T14:46:00.553Z,11.70
2019-03-08T14:48:30.764Z,12.20
2019-03-08T14:51:01.197Z,12.30
2019-03-08T14:53:32.779Z,12.40
2019-03-08T14:56:03.379Z,12.60
2019-03-08T14:58:36.802Z,12.50
2019-03-08T15:01:07.230Z,12.70
2019-03-08T15:03:43.335Z,12.60
2019-03-08T15:06:10.125Z,12.40
2019-03-08T15:08:40.400Z,12.40
2019-03-08T15:11:10.662Z,12.50
2019-03-08T15:13:42.382Z,12.50
2019-03-08T15:16:12.785Z,12.60
2019-03-08T15:18:43.388Z,12.70
2019-03-08T15:21:13.887Z,12.60
2019-03-08T15:23:44.436Z,12.50
2019-03-08T15:26:14.923Z,12.50
2019-03-08T15:28:45.264Z,12.80
2019-03-08T15:31:15.715Z,12.50
2019-03-08T15:33:46.355Z,12.50
2019-03-08T15:36:16.715Z,12.40
2019-03-08T15:38:47.328Z,11.80
2019-03-08T15:41:21.413Z,12.00
2019-03-08T15:43:51.156Z,12.00
2019-03-08T15:46:22.492Z,11.80
2019-03-08T15:48:54.846Z,11.80
2019-03-08T15:51:25.698Z,11.60
2019-03-08T15:53:57.650Z,11.50
2019-03-08T15:56:28.143Z,11.30
2019-03-08T15:58:58.333Z,11.40
2019-03-08T16:01:28.675Z,11.70
2019-03-08T16:03:59.272Z,11.70
2019-03-08T16:06:29.747Z,11.60
2019-03-08T16:09:00.110Z,11.60
2019-03-08T16:11:30.547Z,11.60
2019-03-08T16:14:08.506Z,11.50
2019-03-08T16:16:32.950Z,11.40
2019-03-08T16:19:03.200Z,11.30
2019-03-08T16:21:33.556Z,11.10
2019-03-08T16:24:04.093Z,11.10
2019-03-08T16:26:34.443Z,11.00
2019-03-08T16:29:04.930Z,11.10
2019-03-08T16:31:59.767Z,11.00
2019-03-08T16:34:29.531Z,10.90
2019-03-08T16:37:21.416Z,10.90
2019-03-08T16:40:00.177Z,10.90
2019-03-08T16:42:35.844Z,10.70
2019-03-08T16:45:34.131Z,10.70
2019-03-08T16:48:44.134Z,10.80
2019-03-08T16:51:40.723Z,10.70
2019-03-08T16:54:47.386Z,10.60
2019-03-08T16:57:25.762Z,10.50
2019-03-08T17:00:15.063Z,10.50
2019-03-08T17:03:10.946Z,10.50
2019-03-08T17:05:57.253Z,10.50
2019-03-08T17:08:36.989Z,10.40
2019-03-08T17:11:32.198Z,10.40
2019-03-08T17:14:19.114Z,10.40
2019-03-08T17:17:11.437Z,10.40
2019-03-08T17:20:01.198Z,10.40
2019-03-08T17:22:37.538Z,10.40
2019-03-08T17:25:32.935Z,10.40
2019-03-08T17:28:25.102Z,10.30
2019-03-08T17:31:13.590Z,10.30
2019-03-08T17:34:00.169Z,10.30
2019-03-08T17:36:48.681Z,10.30
2019-03-08T17:39:37.949Z,10.30
2019-03-08T17:42:25.781Z,10.30
2019-03-08T17:45:16.467Z,10.20
2019-03-08T17:48:11.751Z,10.20
2019-03-08T17:50:54.704Z,10.10
2019-03-08T17:53:41.032Z,10.10
2019-03-08T17:56:29.337Z,10.20
2019-03-08T17:59:25.106Z,10.10
2019-03-08T18:02:20.785Z,10.10
2019-03-08T18:05:07.099Z,10.10
2019-03-08T18:07:46.145Z,10.10
2019-03-08T18:10:35.322Z,10.10
2019-03-08T18:13:24.630Z,10.20
2019-03-08T18:16:04.212Z,10.20
2019-03-08T18:18:52.521Z,10.30
2019-03-08T18:21:47.851Z,10.30
2019-03-08T18:24:43.187Z,10.30
2019-03-08T18:27:35.628Z,10.40
2019-03-08T18:30:38.877Z,10.40
2019-03-08T18:33:19.974Z,10.40
2019-03-08T18:36:08.249Z,10.40
2019-03-08T18:39:10.189Z,10.40
2019-03-08T18:41:50.830Z,10.40
2019-03-08T18:44:37.486Z,10.40
2019-03-08T18:47:18.578Z,10.30
2019-03-08T18:50:13.844Z,10.30
2019-03-08T18:53:02.994Z,10.30
2019-03-08T18:56:04.639Z,10.30
2019-03-08T18:58:52.755Z,10.20
2019-03-08T19:01:41.424Z,10.20
2019-03-08T19:04:22.350Z,10.20
2019-03-08T19:07:03.475Z,10.10
2019-03-08T19:09:51.657Z,10.10
2019-03-08T19:12:43.789Z,10.20
2019-03-08T19:15:33.019Z,10.20
2019-03-08T19:18:25.212Z,10.20
2019-03-08T19:21:15.744Z,10.20
2019-03-08T19:23:52.746Z,10.10
2019-03-08T19:26:45.398Z,10.00
2019-03-08T19:29:22.141Z,10.10
2019-03-08T19:31:59.798Z,10.20
2019-03-08T19:34:47.916Z,10.20
2019-03-08T19:37:40.403Z,10.20
2019-03-08T19:40:33.174Z,10.20
2019-03-08T19:43:21.222Z,10.10
2019-03-08T19:46:09.133Z,9.80
2019-03-08T19:48:48.532Z,9.80
2019-03-08T19:51:41.160Z,9.80
2019-03-08T19:54:16.756Z,9.90
2019-03-08T19:56:52.984Z,9.90
2019-03-08T19:59:34.112Z,9.80
2019-03-08T20:02:19.296Z,9.90
2019-03-08T20:05:12.256Z,9.80
2019-03-08T20:08:01.623Z,9.50
2019-03-08T20:10:50.920Z,9.30
2019-03-08T20:13:41.938Z,9.40
2019-03-08T20:16:29.727Z,9.40
2019-03-08T20:19:18.872Z,9.30
2019-03-08T20:22:14.276Z,9.30
2019-03-08T20:25:02.320Z,9.30
2019-03-08T20:27:57.482Z,9.30
2019-03-08T20:30:49.189Z,9.30
2019-03-08T20:33:30.815Z,9.30
2019-03-08T20:36:11.151Z,9.30
2019-03-08T20:39:03.343Z,9.20
2019-03-08T20:41:55.623Z,9.30
2019-03-08T20:44:31.163Z,9.30
2019-03-08T20:47:05.434Z,9.30
2019-03-08T20:49:35.712Z,9.30
2019-03-08T20:52:06.220Z,9.20
2019-03-08T20:54:37.048Z,9.20
2019-03-08T20:57:07.552Z,9.20
2019-03-08T20:59:38.225Z,9.10
2019-03-08T21:02:08.507Z,9.20
2019-03-08T21:04:38.811Z,9.20
2019-03-08T21:07:09.530Z,9.10
2019-03-08T21:09:39.806Z,9.20
2019-03-08T21:12:10.318Z,9.10
2019-03-08T21:14:40.757Z,9.10
2019-03-08T21:17:11.007Z,9.10
2019-03-08T21:19:41.067Z,9.20
2019-03-08T21:22:11.591Z,9.10
2019-03-08T21:24:41.790Z,9.10
2019-03-08T21:27:11.901Z,9.10
2019-03-08T21:29:42.610Z,9.10
2019-03-08T21:32:12.883Z,9.10
2019-03-08T21:34:43.127Z,9.10
2019-03-08T21:37:13.670Z,9.10
2019-03-08T21:39:43.896Z,9.20
2019-03-08T21:42:14.209Z,9.20
2019-03-08T21:44:44.448Z,9.10
2019-03-08T21:47:14.735Z,9.10
2019-03-08T21:49:45.018Z,9.20
2019-03-08T21:52:15.255Z,9.20
2019-03-08T21:54:45.871Z,9.20
2019-03-08T21:57:16.125Z,9.30
2019-03-08T21:59:46.382Z,9.20
2019-03-08T22:02:16.735Z,9.20
2019-03-08T22:04:57.233Z,9.30
2019-03-08T22:07:27.567Z,9.30
2019-03-08T22:10:18.666Z,9.40
2019-03-08T22:12:49.076Z,9.30
2019-03-08T22:15:19.213Z,9.30
2019-03-08T22:17:49.385Z,9.40
2019-03-08T22:20:19.681Z,9.40
2019-03-08T22:22:49.978Z,9.40
2019-03-08T22:25:22.569Z,9.40
2019-03-08T22:27:52.950Z,9.40
2019-03-08T22:30:23.222Z,9.50
2019-03-08T22:32:53.413Z,9.40
2019-03-08T22:35:23.720Z,9.50
2019-03-08T22:37:54.448Z,9.50
2019-03-08T22:40:25.023Z,9.50
2019-03-08T22:42:55.215Z,9.60
2019-03-08T22:45:25.650Z,9.60
2019-03-08T22:47:55.801Z,9.60
2019-03-08T22:50:26.620Z,9.50
2019-03-08T22:52:56.895Z,9.50
2019-03-08T22:55:27.673Z,9.60
2019-03-08T22:57:57.981Z,9.50
2019-03-08T23:01:00.891Z,9.60
2019-03-08T23:03:32.305Z,9.60
2019-03-08T23:06:02.924Z,9.50
2019-03-08T23:08:33.417Z,9.60
2019-03-08T23:11:03.646Z,9.60
2019-03-08T23:13:34.034Z,9.60
2019-03-08T23:16:04.444Z,9.60
2019-03-08T23:18:34.588Z,9.60
2019-03-08T23:21:04.915Z,9.60
2019-03-08T23:23:35.017Z,9.50
2019-03-08T23:26:05.487Z,9.50
2019-03-08T23:28:45.509Z,9.50
2019-03-08T23:31:44.182Z,9.50
2019-03-08T23:34:14.400Z,9.50
2019-03-08T23:36:44.874Z,9.50
2019-03-08T23:39:15.456Z,9.50
2019-03-08T23:41:45.645Z,9.50
2019-03-08T23:44:15.883Z,9.50
2019-03-08T23:46:46.525Z,9.40
2019-03-08T23:49:17.527Z,9.40
2019-03-08T23:51:47.775Z,9.40
2019-03-08T23:54:18.382Z,9.30
2019-03-08T23:56:49.007Z,9.30
2019-03-08T23:59:19.328Z,9.20
